createdAt,value
2023-04-17T00:00:19.066Z,99430.34
2023-04-17T00:05:23.286Z,99426.00
2023-04-17T00:10:27.735Z,99429.16
2023-04-17T00:15:30.851Z,99436.66
2023-04-17T00:20:33.751Z,99429.63
2023-04-17T00:25:38.073Z,99433.25
2023-04-17T00:30:40.999Z,99423.09
2023-04-17T00:35:43.875Z,99424.41
2023-04-17T00:40:48.831Z,99428.81
2023-04-17T00:45:52.158Z,99422.94
2023-04-17T00:50:55.363Z,99424.94
2023-04-17T00:56:01.760Z,99425.44
2023-04-17T01:01:05.470Z,99425.00
2023-04-17T01:06:08.589Z,99422.81
2023-04-17T01:11:13.187Z,99429.38
2023-04-17T01:16:16.345Z,99432.00
2023-04-17T01:21:19.497Z,99429.31
2023-04-17T01:26:24.926Z,99426.41
2023-04-17T01:31:28.968Z,99432.53
2023-04-17T01:36:32.022Z,99425.09
2023-04-17T01:41:36.438Z,99431.66
2023-04-17T01:46:39.355Z,99435.16
2023-04-17T01:51:42.336Z,99432.59
2023-04-17T01:56:47.486Z,99432.84
2023-04-17T02:01:51.240Z,99431.94
2023-04-17T02:06:54.217Z,99434.41
2023-04-17T02:11:58.474Z,99435.78
2023-04-17T02:17:01.584Z,99437.53
2023-04-17T02:22:08.832Z,99443.25
2023-04-17T02:27:13.046Z,99442.56
2023-04-17T02:32:19.701Z,99447.78
2023-04-17T02:37:22.726Z,99444.91
2023-04-17T02:42:27.268Z,99437.75
2023-04-17T02:47:30.248Z,99434.75
2023-04-17T02:52:34.810Z,99435.38
2023-04-17T02:57:39.084Z,99442.06
2023-04-17T03:02:42.329Z,99438.72
2023-04-17T03:07:45.527Z,99433.72
2023-04-17T03:12:50.536Z,99428.66
2023-04-17T03:17:53.975Z,99435.72
2023-04-17T03:22:56.999Z,99433.91
2023-04-17T03:28:01.250Z,99433.91
2023-04-17T03:33:08.142Z,99434.66
2023-04-17T03:38:11.233Z,99436.72
2023-04-17T03:43:15.591Z,99447.41
2023-04-17T03:48:18.705Z,99447.97
2023-04-17T03:53:22.981Z,99448.72
2023-04-17T03:58:28.323Z,99452.69
2023-04-17T04:03:31.823Z,99454.06
2023-04-17T04:08:35.982Z,99447.03
2023-04-17T04:13:40.449Z,99457.53
2023-04-17T04:18:44.159Z,99460.47
2023-04-17T04:23:49.782Z,99459.22
2023-04-17T04:28:57.380Z,99466.38
2023-04-17T04:34:09.059Z,99464.06
2023-04-17T04:39:12.390Z,99467.25
2023-04-17T04:44:17.810Z,99476.44
2023-04-17T04:49:21.769Z,99473.91
2023-04-17T04:54:24.899Z,99476.81
2023-04-17T04:59:33.752Z,99488.63
2023-04-17T05:04:57.554Z,99485.06
2023-04-17T05:10:01.167Z,99483.31
2023-04-17T05:15:11.830Z,99493.38
2023-04-17T05:20:15.490Z,99499.59
2023-04-17T05:25:37.010Z,99497.31
2023-04-17T05:30:45.481Z,99496.19
2023-04-17T05:36:02.418Z,99506.22
2023-04-17T05:41:09.267Z,99502.59
2023-04-17T05:46:14.863Z,99504.38
2023-04-17T05:51:19.421Z,99512.34
2023-04-17T05:56:23.418Z,99514.00
2023-04-17T06:01:29.933Z,99512.00
2023-04-17T06:06:32.900Z,99516.59
2023-04-17T06:11:36.043Z,99522.78
2023-04-17T06:16:41.045Z,99529.06
2023-04-17T06:21:45.325Z,99531.34
2023-04-17T06:26:48.248Z,99532.22
2023-04-17T06:31:53.249Z,99536.19
2023-04-17T06:36:57.546Z,99538.47
2023-04-17T06:42:02.434Z,99539.41
2023-04-17T06:47:06.982Z,99551.78
2023-04-17T06:52:14.082Z,99559.19
2023-04-17T06:57:17.250Z,99559.84
2023-04-17T07:02:21.925Z,99564.06
2023-04-17T07:07:27.076Z,99576.78
2023-04-17T07:12:30.097Z,99566.53
2023-04-17T07:17:34.445Z,99586.50
2023-04-17T07:22:37.421Z,99591.16
2023-04-17T07:27:40.331Z,99594.09
2023-04-17T07:32:45.906Z,99599.66
2023-04-17T07:37:48.990Z,99597.78
2023-04-17T07:42:52.821Z,99606.00
2023-04-17T07:47:57.086Z,99610.06
2023-04-17T07:53:00.051Z,99615.47
2023-04-17T07:58:03.848Z,99626.09
2023-04-17T08:03:08.401Z,99619.25
2023-04-17T08:08:11.488Z,99624.31
2023-04-17T08:13:14.471Z,99626.16
2023-04-17T08:18:18.746Z,99642.13
2023-04-17T08:23:21.599Z,99644.66
2023-04-17T08:28:24.607Z,99644.00
2023-04-17T08:33:28.964Z,99653.94
2023-04-17T08:38:32.065Z,99660.47
2023-04-17T08:43:36.907Z,99653.84
2023-04-17T08:48:41.379Z,99669.66
2023-04-17T08:53:44.413Z,99670.75
2023-04-17T08:58:47.343Z,99669.31
2023-04-17T09:03:52.604Z,99675.44
2023-04-17T09:08:57.846Z,99682.19
2023-04-17T09:14:01.296Z,99679.78
2023-04-17T09:19:08.722Z,99689.25
2023-04-17T09:24:11.642Z,99685.09
2023-04-17T09:29:15.581Z,99692.31
2023-04-17T09:34:20.870Z,99692.75
2023-04-17T09:39:24.687Z,99694.38
2023-04-17T09:44:30.153Z,99693.09
2023-04-17T09:49:42.179Z,99690.66
2023-04-17T09:54:47.587Z,99687.72
2023-04-17T09:59:50.860Z,99693.81
2023-04-17T10:04:55.585Z,99699.75
2023-04-17T10:09:58.434Z,99696.09
2023-04-17T10:15:01.558Z,99693.06
2023-04-17T10:20:44.673Z,99714.13
2023-04-17T10:25:47.642Z,99706.69
2023-04-17T10:30:52.403Z,99705.22
2023-04-17T10:35:56.709Z,99705.81
2023-04-17T10:41:03.791Z,99698.00
2023-04-17T10:46:09.803Z,99702.66
2023-04-17T10:51:44.253Z,99693.34
2023-04-17T10:56:48.508Z,99692.94
2023-04-17T11:02:01.169Z,99703.78
2023-04-17T11:07:05.888Z,99706.25
2023-04-17T11:12:08.934Z,99695.84
2023-04-17T11:17:11.932Z,99705.97
2023-04-17T11:22:19.366Z,99704.75
2023-04-17T11:27:23.601Z,99706.38
2023-04-17T11:32:26.521Z,99709.06
2023-04-17T11:37:30.834Z,99706.81
2023-04-17T11:42:33.718Z,99718.94
2023-04-17T11:47:36.781Z,99725.75
2023-04-17T11:52:41.093Z,99716.50
2023-04-17T11:57:44.362Z,99718.28
2023-04-17T12:02:47.354Z,99724.91
2023-04-17T12:08:02.191Z,99725.97
2023-04-17T12:13:05.548Z,99716.28
2023-04-17T12:18:09.331Z,99724.16
2023-04-17T12:23:13.645Z,99722.19
2023-04-17T12:28:16.572Z,99740.97
2023-04-17T12:33:19.489Z,99729.56
2023-04-17T12:38:24.325Z,99752.13
2023-04-17T12:43:27.272Z,99726.34
2023-04-17T12:48:32.745Z,99738.53
2023-04-17T12:53:37.440Z,99737.88
2023-04-17T12:58:40.369Z,99730.19
2023-04-17T13:03:43.455Z,99733.66
2023-04-17T13:08:48.160Z,99736.81
2023-04-17T13:13:51.054Z,99735.38
2023-04-17T13:18:53.980Z,99740.88
2023-04-17T13:23:58.309Z,99746.19
2023-04-17T13:29:01.179Z,99750.31
2023-04-17T13:34:05.398Z,99743.66
2023-04-17T13:39:10.692Z,99755.91
2023-04-17T13:49:51.254Z,99747.88
2023-04-17T13:54:55.718Z,99748.81
2023-04-17T13:59:58.769Z,99750.31
2023-04-17T14:05:01.881Z,99742.28
2023-04-17T14:10:07.582Z,99743.53
2023-04-17T14:15:11.977Z,99757.00
2023-04-17T14:20:16.745Z,99749.69
2023-04-17T14:25:21.182Z,99740.88
2023-04-17T14:30:24.422Z,99744.75
2023-04-17T14:35:27.379Z,99751.41
2023-04-17T14:40:31.885Z,99753.47
2023-04-17T14:45:36.719Z,99756.63
2023-04-17T14:50:40.005Z,99758.09
2023-04-17T14:55:44.332Z,99769.25
2023-04-17T15:00:47.256Z,99763.59
2023-04-17T15:05:52.316Z,99758.72
2023-04-17T15:10:56.633Z,99765.00
2023-04-17T15:15:59.568Z,99755.09
2023-04-17T15:21:02.437Z,99767.72
2023-04-17T15:26:06.892Z,99773.41
2023-04-17T15:31:09.784Z,99777.09
2023-04-17T15:36:12.734Z,99773.94
2023-04-17T15:41:17.158Z,99777.53
2023-04-17T15:46:20.283Z,99768.81
2023-04-17T15:51:23.231Z,99778.53
2023-04-17T15:56:27.520Z,99786.47
2023-04-17T16:01:31.717Z,99774.47
2023-04-17T16:06:34.709Z,99784.91
2023-04-17T16:11:39.272Z,99785.22
2023-04-17T16:16:42.237Z,99783.00
2023-04-17T16:21:45.176Z,99780.25
2023-04-17T16:26:54.385Z,99778.94
2023-04-17T16:31:57.662Z,99787.38
2023-04-17T16:37:00.635Z,99781.50
2023-04-17T16:42:05.118Z,99792.97
2023-04-17T16:47:13.452Z,99795.78
2023-04-17T16:52:17.443Z,99793.81
2023-04-17T16:57:21.766Z,99794.50
2023-04-17T17:02:24.743Z,99788.81
2023-04-17T17:07:27.705Z,99805.00
2023-04-17T17:12:32.124Z,99799.66
2023-04-17T17:17:35.044Z,99799.94
2023-04-17T17:22:38.210Z,99802.44
2023-04-17T17:27:42.493Z,99795.78
2023-04-17T17:32:45.410Z,99800.19
2023-04-17T17:37:48.313Z,99805.94
2023-04-17T17:42:52.665Z,99805.88
2023-04-17T17:47:55.820Z,99813.19
2023-04-17T17:52:59.151Z,99817.00
2023-04-17T17:58:03.795Z,99810.94
2023-04-17T18:03:07.079Z,99807.03
2023-04-17T18:08:10.335Z,99815.59
2023-04-17T18:13:14.935Z,99809.91
2023-04-17T18:18:17.835Z,99822.84
2023-04-17T18:23:20.816Z,99820.84
2023-04-17T18:28:25.165Z,99823.03
2023-04-17T18:33:28.817Z,99836.88
2023-04-17T18:38:31.957Z,99838.41
2023-04-17T18:43:36.316Z,99839.25
2023-04-17T18:48:39.215Z,99836.13
2023-04-17T18:53:42.145Z,99843.00
2023-04-17T18:58:47.150Z,99837.50
2023-04-17T19:03:51.224Z,99840.69
2023-04-17T19:08:54.489Z,99841.84
2023-04-17T19:13:58.727Z,99839.22
2023-04-17T19:19:01.735Z,99842.97
2023-04-17T19:24:04.865Z,99843.31
2023-04-17T19:29:09.213Z,99838.47
2023-04-17T19:34:12.177Z,99842.47
2023-04-17T19:39:15.448Z,99845.00
2023-04-17T19:44:20.156Z,99847.91
2023-04-17T19:49:23.008Z,99843.50
2023-04-17T19:54:26.010Z,99836.50
2023-04-17T19:59:30.306Z,99838.75
2023-04-17T20:04:33.351Z,99842.09
2023-04-17T20:09:36.268Z,99843.25
2023-04-17T20:14:40.584Z,99845.22
2023-04-17T20:19:43.556Z,99850.63
2023-04-17T20:24:50.657Z,99850.31
2023-04-17T20:29:54.981Z,99854.69
2023-04-17T20:34:57.888Z,99847.84
2023-04-17T20:40:00.771Z,99855.34
2023-04-17T20:45:05.670Z,99844.91
2023-04-17T20:50:09.991Z,99842.78
2023-04-17T20:55:12.900Z,99844.28
2023-04-17T21:00:17.634Z,99841.69
2023-04-17T21:05:20.539Z,99837.13
2023-04-17T21:10:23.411Z,99841.47
2023-04-17T21:15:27.757Z,99838.53
2023-04-17T21:20:30.924Z,99843.50
2023-04-17T21:25:33.823Z,99851.53
2023-04-17T21:30:38.564Z,99843.03
2023-04-17T21:35:41.510Z,99835.25
2023-04-17T21:40:50.910Z,99835.41
2023-04-17T21:45:57.025Z,99834.41
2023-04-17T21:51:03.982Z,99834.69
2023-04-17T21:56:07.281Z,99830.97
2023-04-17T22:01:11.591Z,99832.34
2023-04-17T22:06:14.547Z,99831.41
2023-04-17T22:11:17.459Z,99832.59
2023-04-17T22:16:21.798Z,99830.41
2023-04-17T22:21:24.816Z,99831.88
2023-04-17T22:26:27.899Z,99838.06
2023-04-17T22:31:32.303Z,99834.72
2023-04-17T22:36:35.422Z,99839.06
2023-04-17T22:41:38.298Z,99840.22
2023-04-17T22:46:42.728Z,99838.06
2023-04-17T22:51:45.706Z,99836.16
2023-04-17T22:56:48.622Z,99832.31
2023-04-17T23:01:53.538Z,99836.16
2023-04-17T23:06:56.856Z,99839.47
2023-04-17T23:11:59.718Z,99830.34
2023-04-17T23:17:03.924Z,99824.13
2023-04-17T23:22:07.668Z,99815.50
2023-04-17T23:27:10.633Z,99819.53
2023-04-17T23:32:14.983Z,99826.34
2023-04-17T23:37:18.044Z,99823.75
2023-04-17T23:42:21.098Z,99818.59
2023-04-17T23:47:25.421Z,99817.69
2023-04-17T23:52:28.558Z,99812.84
2023-04-17T23:57:34.607Z,99814.38
